Archival Weather

Heathrow

London, United Kingdom (EGLL)

Report from: Thursday, September 21, 2023 2:50 AM BST
Current time: Saturday, March 2, 2024 10:17 AM GMT

Current weather – Weather history – Daily summaries
Weather forecast

Temperature13.0°C (55.4°F)
Dew point12.0°C (53.6°F)
Winds 5 kts (2.6 m/s, 5.8 mph) Vrb
Winds variableWinds variable from South (170°) to Southwest (230°)
Visibility6.2 mi. (10 km)
Clouds Sky clear
Altimeter29.41 in.Hg (996 mB)
Relative humidity94 %
Density altitude547 ft. (167 m)
Remarks Fully automated report
No clouds detected
Flight conditions Visual Meteorological Conditions
Raw dataEGLL 210150Z AUTO 21005KT 170V230 9999 NCD 13/12 Q0996
An error has occurred. This application may no longer respond until reloaded. Reload 🗙